الصفحة الرئيسية
METAR-TAF:

METAR-TAF

مطار :

ألبوري, أستراليا

دائرة عرض: 36-04-06S, خط طول: 146-57-30E, ارتفاع: 164 متر

مراقبة الطقس الحالي

تاريخ ووقت الإصدار 1ساعة و 12 دقيقة قبل الساعة 14:00UTC
رياح هادئة
درجة الحرارة 10°درجة مئوية
الرطوبة 87%
ضغط 1021 hPa
الرؤية 10 كم أو أكثر

METAR: YMAY 061400Z AUTO 00000KT 9999 // NCD 10/08 Q1021

زمن: 01:12 (15:12 UTC)


TAF: مفقودة

أرصاد الطقس والتوقعات من أكثر من 4000 مطار (تقارير الطقس للمطار METAR والتنبؤ بالطقس بالمطارTAF).

المحطات المتاحة هي النقط الصفراء والحمراء على الخريطة.

حرك المؤشر فوق النقطة لمعرفة اسم المحطة.

ثم انقر لمعرفة أرصاد وتوقعات الطقس.

لتغيير الخارطة: اضغط على الأزرار الخضراء مع رمز الصليب الأسود للتكبير. على الزر الأخضر مع شرطة للتصغير، أو على الأسهم الخضراء للخرائط المجاورة.


METAR-TAF: